sensor_id;sensor_type;location;lat;lon;timestamp;temperature;humidity
42031;DHT22;27709;52.036;5.906;2023-07-31T00:01:04;17.60;99.90
42031;DHT22;27709;52.036;5.906;2023-07-31T00:03:29;17.60;99.90
42031;DHT22;27709;52.036;5.906;2023-07-31T00:05:55;17.60;99.90
42031;DHT22;27709;52.036;5.906;2023-07-31T00:08:20;17.70;99.90
42031;DHT22;27709;52.036;5.906;2023-07-31T00:10:46;17.70;99.90
42031;DHT22;27709;52.036;5.906;2023-07-31T00:13:11;17.70;99.90
42031;DHT22;27709;52.036;5.906;2023-07-31T00:15:43;17.70;99.90
42031;DHT22;27709;52.036;5.906;2023-07-31T00:18:08;17.80;99.90
42031;DHT22;27709;52.036;5.906;2023-07-31T00:20:34;17.80;99.90
42031;DHT22;27709;52.036;5.906;2023-07-31T00:22:59;17.80;99.90
42031;DHT22;27709;52.036;5.906;2023-07-31T00:25:31;17.80;99.90
42031;DHT22;27709;52.036;5.906;2023-07-31T00:27:56;17.80;99.90
42031;DHT22;27709;52.036;5.906;2023-07-31T00:30:22;17.80;99.90
42031;DHT22;27709;52.036;5.906;2023-07-31T00:32:48;17.80;99.90
42031;DHT22;27709;52.036;5.906;2023-07-31T00:35:13;17.80;99.90
42031;DHT22;27709;52.036;5.906;2023-07-31T00:37:44;17.80;99.90
42031;DHT22;27709;52.036;5.906;2023-07-31T00:40:10;17.70;99.90
42031;DHT22;27709;52.036;5.906;2023-07-31T00:42:35;17.70;99.90
42031;DHT22;27709;52.036;5.906;2023-07-31T00:45:01;17.70;99.90
42031;DHT22;27709;52.036;5.906;2023-07-31T00:47:26;17.70;99.90
42031;DHT22;27709;52.036;5.906;2023-07-31T00:49:52;17.80;99.90
42031;DHT22;27709;52.036;5.906;2023-07-31T00:52:18;17.80;99.90
42031;DHT22;27709;52.036;5.906;2023-07-31T00:54:55;17.80;99.90
42031;DHT22;27709;52.036;5.906;2023-07-31T00:57:27;17.80;99.90
42031;DHT22;27709;52.036;5.906;2023-07-31T00:59:53;17.80;99.90
42031;DHT22;27709;52.036;5.906;2023-07-31T01:02:18;17.80;99.90
42031;DHT22;27709;52.036;5.906;2023-07-31T01:04:44;17.80;99.90
42031;DHT22;27709;52.036;5.906;2023-07-31T01:07:21;17.90;99.90
42031;DHT22;27709;52.036;5.906;2023-07-31T01:09:57;17.90;99.90
42031;DHT22;27709;52.036;5.906;2023-07-31T01:12:26;18.00;99.90
42031;DHT22;27709;52.036;5.906;2023-07-31T01:15:05;17.90;99.90
42031;DHT22;27709;52.036;5.906;2023-07-31T01:17:31;18.00;99.90
42031;DHT22;27709;52.036;5.906;2023-07-31T01:20:01;17.90;99.90
42031;DHT22;27709;52.036;5.906;2023-07-31T01:22:39;17.90;99.90
42031;DHT22;27709;52.036;5.906;2023-07-31T01:29:01;18.10;99.90
42031;DHT22;27709;52.036;5.906;2023-07-31T01:31:38;18.20;99.90
42031;DHT22;27709;52.036;5.906;2023-07-31T01:34:06;18.20;99.90
42031;DHT22;27709;52.036;5.906;2023-07-31T01:36:34;18.30;99.90
42031;DHT22;27709;52.036;5.906;2023-07-31T01:39:00;18.30;99.90
42031;DHT22;27709;52.036;5.906;2023-07-31T01:41:47;18.30;99.90
42031;DHT22;27709;52.036;5.906;2023-07-31T01:44:13;18.30;99.90
42031;DHT22;27709;52.036;5.906;2023-07-31T01:46:38;18.30;99.90
42031;DHT22;27709;52.036;5.906;2023-07-31T01:49:05;18.30;99.90
42031;DHT22;27709;52.036;5.906;2023-07-31T01:51:31;18.30;99.90
42031;DHT22;27709;52.036;5.906;2023-07-31T01:54:00;18.30;99.90
42031;DHT22;27709;52.036;5.906;2023-07-31T01:56:28;18.30;99.90
42031;DHT22;27709;52.036;5.906;2023-07-31T01:58:54;18.30;99.90
42031;DHT22;27709;52.036;5.906;2023-07-31T02:01:20;18.30;99.90
42031;DHT22;27709;52.036;5.906;2023-07-31T02:03:45;18.30;99.90
42031;DHT22;27709;52.036;5.906;2023-07-31T02:06:11;18.30;99.90
42031;DHT22;27709;52.036;5.906;2023-07-31T02:08:36;18.30;99.90
42031;DHT22;27709;52.036;5.906;2023-07-31T02:11:03;18.30;99.90
42031;DHT22;27709;52.036;5.906;2023-07-31T02:13:29;18.30;99.90
42031;DHT22;27709;52.036;5.906;2023-07-31T02:15:54;18.30;99.90
42031;DHT22;27709;52.036;5.906;2023-07-31T02:18:20;18.20;99.90
42031;DHT22;27709;52.036;5.906;2023-07-31T02:20:49;18.20;99.90
42031;DHT22;27709;52.036;5.906;2023-07-31T02:23:15;18.30;99.90
42031;DHT22;27709;52.036;5.906;2023-07-31T02:25:40;18.30;99.90
42031;DHT22;27709;52.036;5.906;2023-07-31T02:28:06;18.20;99.90
42031;DHT22;27709;52.036;5.906;2023-07-31T02:30:35;18.20;99.90
42031;DHT22;27709;52.036;5.906;2023-07-31T02:33:00;18.30;99.90
42031;DHT22;27709;52.036;5.906;2023-07-31T02:35:26;18.30;99.90
42031;DHT22;27709;52.036;5.906;2023-07-31T02:37:51;18.30;99.90
42031;DHT22;27709;52.036;5.906;2023-07-31T02:40:17;18.30;99.90
42031;DHT22;27709;52.036;5.906;2023-07-31T02:42:42;18.20;99.90
42031;DHT22;27709;52.036;5.906;2023-07-31T02:45:08;18.30;99.90
42031;DHT22;27709;52.036;5.906;2023-07-31T02:47:34;18.30;99.90
42031;DHT22;27709;52.036;5.906;2023-07-31T02:49:59;18.30;99.90
42031;DHT22;27709;52.036;5.906;2023-07-31T02:52:25;18.40;99.90
42031;DHT22;27709;52.036;5.906;2023-07-31T02:54:51;18.40;99.90
42031;DHT22;27709;52.036;5.906;2023-07-31T02:57:16;18.40;99.90
42031;DHT22;27709;52.036;5.906;2023-07-31T02:59:43;18.40;99.90
42031;DHT22;27709;52.036;5.906;2023-07-31T03:02:09;18.40;99.90
42031;DHT22;27709;52.036;5.906;2023-07-31T03:04:34;18.40;99.90
42031;DHT22;27709;52.036;5.906;2023-07-31T03:07:00;18.40;99.90
42031;DHT22;27709;52.036;5.906;2023-07-31T03:09:25;18.40;99.90
42031;DHT22;27709;52.036;5.906;2023-07-31T03:11:51;18.50;99.90
42031;DHT22;27709;52.036;5.906;2023-07-31T03:14:16;18.50;99.90
42031;DHT22;27709;52.036;5.906;2023-07-31T03:16:42;18.40;99.90
42031;DHT22;27709;52.036;5.906;2023-07-31T03:19:08;18.40;99.90
42031;DHT22;27709;52.036;5.906;2023-07-31T03:21:33;18.30;99.90
42031;DHT22;27709;52.036;5.906;2023-07-31T03:23:59;18.30;99.90
42031;DHT22;27709;52.036;5.906;2023-07-31T03:26:25;18.40;99.90
42031;DHT22;27709;52.036;5.906;2023-07-31T03:28:51;18.30;99.90
42031;DHT22;27709;52.036;5.906;2023-07-31T03:31:18;18.30;99.90
42031;DHT22;27709;52.036;5.906;2023-07-31T03:33:43;18.20;99.90
42031;DHT22;27709;52.036;5.906;2023-07-31T03:36:09;18.30;99.90
42031;DHT22;27709;52.036;5.906;2023-07-31T03:38:34;18.20;99.90
42031;DHT22;27709;52.036;5.906;2023-07-31T03:41:00;18.30;99.90
42031;DHT22;27709;52.036;5.906;2023-07-31T03:43:26;18.20;99.90
42031;DHT22;27709;52.036;5.906;2023-07-31T03:45:52;18.20;99.90
42031;DHT22;27709;52.036;5.906;2023-07-31T03:48:18;18.20;99.90
42031;DHT22;27709;52.036;5.906;2023-07-31T03:50:43;18.10;99.90
42031;DHT22;27709;52.036;5.906;2023-07-31T03:53:09;18.20;99.90
42031;DHT22;27709;52.036;5.906;2023-07-31T03:55:35;18.20;99.90
42031;DHT22;27709;52.036;5.906;2023-07-31T03:58:01;18.10;99.90
42031;DHT22;27709;52.036;5.906;2023-07-31T04:00:27;18.20;99.90
42031;DHT22;27709;52.036;5.906;2023-07-31T04:02:52;18.20;99.90
42031;DHT22;27709;52.036;5.906;2023-07-31T04:05:21;18.10;99.90
42031;DHT22;27709;52.036;5.906;2023-07-31T04:07:46;18.10;99.90
42031;DHT22;27709;52.036;5.906;2023-07-31T04:10:12;18.10;99.90
42031;DHT22;27709;52.036;5.906;2023-07-31T04:12:37;18.10;99.90
42031;DHT22;27709;52.036;5.906;2023-07-31T04:15:03;18.10;99.90
42031;DHT22;27709;52.036;5.906;2023-07-31T04:17:29;18.10;99.90
42031;DHT22;27709;52.036;5.906;2023-07-31T04:19:54;18.10;99.90
42031;DHT22;27709;52.036;5.906;2023-07-31T04:22:20;18.10;99.90
42031;DHT22;27709;52.036;5.906;2023-07-31T04:24:45;18.10;99.90
42031;DHT22;27709;52.036;5.906;2023-07-31T04:27:11;18.10;99.90
42031;DHT22;27709;52.036;5.906;2023-07-31T04:29:36;18.00;99.90
42031;DHT22;27709;52.036;5.906;2023-07-31T04:32:02;18.10;99.90
42031;DHT22;27709;52.036;5.906;2023-07-31T04:34:28;18.10;99.90
42031;DHT22;27709;52.036;5.906;2023-07-31T04:36:53;18.10;99.90
42031;DHT22;27709;52.036;5.906;2023-07-31T04:39:19;18.10;99.90
42031;DHT22;27709;52.036;5.906;2023-07-31T04:41:44;18.10;99.90
42031;DHT22;27709;52.036;5.906;2023-07-31T04:44:10;18.20;99.90
42031;DHT22;27709;52.036;5.906;2023-07-31T04:46:36;18.10;99.90
42031;DHT22;27709;52.036;5.906;2023-07-31T04:49:05;18.10;99.90
42031;DHT22;27709;52.036;5.906;2023-07-31T04:51:30;18.10;99.90
42031;DHT22;27709;52.036;5.906;2023-07-31T04:53:56;18.10;99.90
42031;DHT22;27709;52.036;5.906;2023-07-31T04:56:22;18.20;99.90
42031;DHT22;27709;52.036;5.906;2023-07-31T04:58:47;18.10;99.90
42031;DHT22;27709;52.036;5.906;2023-07-31T05:01:13;18.10;99.90
42031;DHT22;27709;52.036;5.906;2023-07-31T05:03:40;18.20;99.90
42031;DHT22;27709;52.036;5.906;2023-07-31T05:06:06;18.20;99.90
42031;DHT22;27709;52.036;5.906;2023-07-31T05:08:32;18.20;99.90
42031;DHT22;27709;52.036;5.906;2023-07-31T05:13:28;18.20;99.90
42031;DHT22;27709;52.036;5.906;2023-07-31T05:15:53;18.20;99.90
42031;DHT22;27709;52.036;5.906;2023-07-31T05:18:19;18.30;99.90
42031;DHT22;27709;52.036;5.906;2023-07-31T05:20:45;18.30;99.90
42031;DHT22;27709;52.036;5.906;2023-07-31T05:23:10;18.30;99.90
42031;DHT22;27709;52.036;5.906;2023-07-31T05:25:36;18.20;99.90
42031;DHT22;27709;52.036;5.906;2023-07-31T05:28:01;18.20;99.90
42031;DHT22;27709;52.036;5.906;2023-07-31T05:30:30;18.20;99.90
42031;DHT22;27709;52.036;5.906;2023-07-31T05:32:56;18.20;99.90
42031;DHT22;27709;52.036;5.906;2023-07-31T05:35:22;18.20;99.90
42031;DHT22;27709;52.036;5.906;2023-07-31T05:37:47;18.20;99.90
42031;DHT22;27709;52.036;5.906;2023-07-31T05:40:13;18.20;99.90
42031;DHT22;27709;52.036;5.906;2023-07-31T05:42:42;18.20;99.90
42031;DHT22;27709;52.036;5.906;2023-07-31T05:45:08;18.20;99.90
42031;DHT22;27709;52.036;5.906;2023-07-31T05:47:36;18.20;99.90
42031;DHT22;27709;52.036;5.906;2023-07-31T05:50:02;18.10;99.90
42031;DHT22;27709;52.036;5.906;2023-07-31T05:52:27;18.10;99.90
42031;DHT22;27709;52.036;5.906;2023-07-31T05:54:55;18.10;99.90
42031;DHT22;27709;52.036;5.906;2023-07-31T05:57:21;18.10;99.90
42031;DHT22;27709;52.036;5.906;2023-07-31T05:59:47;18.00;99.90
42031;DHT22;27709;52.036;5.906;2023-07-31T06:02:12;17.90;99.90
42031;DHT22;27709;52.036;5.906;2023-07-31T06:04:38;17.90;99.90
42031;DHT22;27709;52.036;5.906;2023-07-31T06:07:07;18.00;99.90
42031;DHT22;27709;52.036;5.906;2023-07-31T06:09:32;18.00;99.90
42031;DHT22;27709;52.036;5.906;2023-07-31T06:12:07;18.00;99.90
42031;DHT22;27709;52.036;5.906;2023-07-31T06:14:32;18.00;99.90
42031;DHT22;27709;52.036;5.906;2023-07-31T06:16:58;18.00;99.90
42031;DHT22;27709;52.036;5.906;2023-07-31T06:19:37;18.00;99.90
42031;DHT22;27709;52.036;5.906;2023-07-31T06:22:03;18.00;99.90
42031;DHT22;27709;52.036;5.906;2023-07-31T06:24:28;18.10;99.90
42031;DHT22;27709;52.036;5.906;2023-07-31T06:26:55;18.10;99.90
42031;DHT22;27709;52.036;5.906;2023-07-31T06:29:20;18.20;99.90
42031;DHT22;27709;52.036;5.906;2023-07-31T06:31:46;18.10;99.90
42031;DHT22;27709;52.036;5.906;2023-07-31T06:34:11;18.20;99.90
42031;DHT22;27709;52.036;5.906;2023-07-31T06:36:39;18.20;99.90
42031;DHT22;27709;52.036;5.906;2023-07-31T06:39:06;18.20;99.90
42031;DHT22;27709;52.036;5.906;2023-07-31T06:41:32;18.20;99.90
42031;DHT22;27709;52.036;5.906;2023-07-31T06:43:57;18.30;99.90
42031;DHT22;27709;52.036;5.906;2023-07-31T06:46:23;18.30;99.90
42031;DHT22;27709;52.036;5.906;2023-07-31T06:48:48;18.30;99.90
42031;DHT22;27709;52.036;5.906;2023-07-31T06:51:14;18.40;99.90
42031;DHT22;27709;52.036;5.906;2023-07-31T06:53:40;18.30;99.90
42031;DHT22;27709;52.036;5.906;2023-07-31T06:56:06;18.40;99.90
42031;DHT22;27709;52.036;5.906;2023-07-31T06:58:32;18.40;99.90
42031;DHT22;27709;52.036;5.906;2023-07-31T07:00:57;18.40;99.90
42031;DHT22;27709;52.036;5.906;2023-07-31T07:03:23;18.40;99.90
42031;DHT22;27709;52.036;5.906;2023-07-31T07:05:48;18.40;99.90
42031;DHT22;27709;52.036;5.906;2023-07-31T07:08:14;18.40;99.90
42031;DHT22;27709;52.036;5.906;2023-07-31T07:10:39;18.40;99.90
42031;DHT22;27709;52.036;5.906;2023-07-31T07:13:08;18.40;99.90
42031;DHT22;27709;52.036;5.906;2023-07-31T07:15:33;18.40;99.90
42031;DHT22;27709;52.036;5.906;2023-07-31T07:17:59;18.50;99.90
42031;DHT22;27709;52.036;5.906;2023-07-31T07:20:24;18.50;99.90
42031;DHT22;27709;52.036;5.906;2023-07-31T07:22:50;18.60;99.90
42031;DHT22;27709;52.036;5.906;2023-07-31T07:25:15;18.70;99.90
42031;DHT22;27709;52.036;5.906;2023-07-31T07:27:43;18.70;99.90
42031;DHT22;27709;52.036;5.906;2023-07-31T07:30:09;18.80;99.90
42031;DHT22;27709;52.036;5.906;2023-07-31T07:32:34;18.80;99.90
42031;DHT22;27709;52.036;5.906;2023-07-31T07:35:00;18.80;99.90
42031;DHT22;27709;52.036;5.906;2023-07-31T07:37:26;18.80;99.90
42031;DHT22;27709;52.036;5.906;2023-07-31T07:39:54;18.80;99.90
42031;DHT22;27709;52.036;5.906;2023-07-31T07:42:19;18.80;99.90
42031;DHT22;27709;52.036;5.906;2023-07-31T07:44:45;18.80;99.90
42031;DHT22;27709;52.036;5.906;2023-07-31T07:47:10;18.70;99.90
42031;DHT22;27709;52.036;5.906;2023-07-31T07:49:38;18.70;99.90
42031;DHT22;27709;52.036;5.906;2023-07-31T07:52:04;18.60;99.90
42031;DHT22;27709;52.036;5.906;2023-07-31T07:54:30;18.50;99.90
42031;DHT22;27709;52.036;5.906;2023-07-31T07:56:56;18.60;99.90
42031;DHT22;27709;52.036;5.906;2023-07-31T07:59:22;18.60;99.90
42031;DHT22;27709;52.036;5.906;2023-07-31T08:01:47;18.60;99.90
42031;DHT22;27709;52.036;5.906;2023-07-31T08:04:13;18.70;99.90
42031;DHT22;27709;52.036;5.906;2023-07-31T08:06:39;18.70;99.90
42031;DHT22;27709;52.036;5.906;2023-07-31T08:09:05;18.70;99.90
42031;DHT22;27709;52.036;5.906;2023-07-31T08:11:32;18.70;99.90
42031;DHT22;27709;52.036;5.906;2023-07-31T08:13:59;18.70;99.90
42031;DHT22;27709;52.036;5.906;2023-07-31T08:16:25;18.80;99.90
42031;DHT22;27709;52.036;5.906;2023-07-31T08:18:50;18.90;99.90
42031;DHT22;27709;52.036;5.906;2023-07-31T08:21:16;18.90;99.90
42031;DHT22;27709;52.036;5.906;2023-07-31T08:23:42;19.00;99.90
42031;DHT22;27709;52.036;5.906;2023-07-31T08:26:07;19.00;99.90
42031;DHT22;27709;52.036;5.906;2023-07-31T08:28:33;18.90;99.90
42031;DHT22;27709;52.036;5.906;2023-07-31T08:31:00;19.00;99.90
42031;DHT22;27709;52.036;5.906;2023-07-31T08:33:26;19.00;99.90
42031;DHT22;27709;52.036;5.906;2023-07-31T08:35:51;19.10;99.90
42031;DHT22;27709;52.036;5.906;2023-07-31T08:38:17;19.10;99.90
42031;DHT22;27709;52.036;5.906;2023-07-31T08:40:42;19.20;99.90
42031;DHT22;27709;52.036;5.906;2023-07-31T08:43:09;19.20;99.90
42031;DHT22;27709;52.036;5.906;2023-07-31T08:45:34;19.20;99.90
42031;DHT22;27709;52.036;5.906;2023-07-31T08:48:00;19.30;99.90
42031;DHT22;27709;52.036;5.906;2023-07-31T08:50:26;19.30;99.90
42031;DHT22;27709;52.036;5.906;2023-07-31T08:52:52;19.30;99.90
42031;DHT22;27709;52.036;5.906;2023-07-31T08:55:20;19.40;99.90
42031;DHT22;27709;52.036;5.906;2023-07-31T08:57:50;19.40;99.90
42031;DHT22;27709;52.036;5.906;2023-07-31T09:00:16;19.50;99.90
42031;DHT22;27709;52.036;5.906;2023-07-31T09:02:46;19.50;99.90
42031;DHT22;27709;52.036;5.906;2023-07-31T09:05:12;19.50;99.90
42031;DHT22;27709;52.036;5.906;2023-07-31T09:07:38;19.60;99.90
42031;DHT22;27709;52.036;5.906;2023-07-31T09:10:05;19.60;99.90
42031;DHT22;27709;52.036;5.906;2023-07-31T09:12:31;19.70;99.90
42031;DHT22;27709;52.036;5.906;2023-07-31T09:14:58;19.70;99.90
42031;DHT22;27709;52.036;5.906;2023-07-31T09:17:35;19.60;99.90
42031;DHT22;27709;52.036;5.906;2023-07-31T09:20:20;19.60;99.90
42031;DHT22;27709;52.036;5.906;2023-07-31T09:22:47;19.60;99.90
42031;DHT22;27709;52.036;5.906;2023-07-31T09:25:24;19.50;99.90
42031;DHT22;27709;52.036;5.906;2023-07-31T09:27:55;19.60;99.90
42031;DHT22;27709;52.036;5.906;2023-07-31T09:30:21;19.60;99.90
42031;DHT22;27709;52.036;5.906;2023-07-31T09:32:48;19.60;99.90
42031;DHT22;27709;52.036;5.906;2023-07-31T09:35:22;19.60;99.90
42031;DHT22;27709;52.036;5.906;2023-07-31T09:37:55;19.60;99.90
42031;DHT22;27709;52.036;5.906;2023-07-31T09:40:30;19.60;99.90
42031;DHT22;27709;52.036;5.906;2023-07-31T09:43:00;19.60;99.90
42031;DHT22;27709;52.036;5.906;2023-07-31T09:45:27;19.50;99.90
42031;DHT22;27709;52.036;5.906;2023-07-31T09:47:53;19.50;99.90
42031;DHT22;27709;52.036;5.906;2023-07-31T09:50:27;19.40;99.90
42031;DHT22;27709;52.036;5.906;2023-07-31T09:52:53;19.40;99.90
42031;DHT22;27709;52.036;5.906;2023-07-31T09:55:19;19.40;99.90
42031;DHT22;27709;52.036;5.906;2023-07-31T09:57:47;19.40;99.90
42031;DHT22;27709;52.036;5.906;2023-07-31T10:00:18;19.40;99.90
42031;DHT22;27709;52.036;5.906;2023-07-31T10:02:53;19.50;99.90
42031;DHT22;27709;52.036;5.906;2023-07-31T10:05:19;19.60;99.90
42031;DHT22;27709;52.036;5.906;2023-07-31T10:07:54;19.60;99.90
42031;DHT22;27709;52.036;5.906;2023-07-31T10:10:22;19.70;99.90
42031;DHT22;27709;52.036;5.906;2023-07-31T10:12:52;19.80;99.90
42031;DHT22;27709;52.036;5.906;2023-07-31T10:15:18;19.80;99.90
42031;DHT22;27709;52.036;5.906;2023-07-31T10:17:47;19.80;99.90
42031;DHT22;27709;52.036;5.906;2023-07-31T10:20:13;19.80;99.90
42031;DHT22;27709;52.036;5.906;2023-07-31T10:22:42;19.80;99.90
42031;DHT22;27709;52.036;5.906;2023-07-31T10:25:08;19.80;99.90
42031;DHT22;27709;52.036;5.906;2023-07-31T10:27:41;19.80;99.90
42031;DHT22;27709;52.036;5.906;2023-07-31T10:30:15;19.80;99.90
42031;DHT22;27709;52.036;5.906;2023-07-31T10:32:43;19.80;99.90
42031;DHT22;27709;52.036;5.906;2023-07-31T10:35:09;19.80;99.90
42031;DHT22;27709;52.036;5.906;2023-07-31T10:40:44;19.90;99.90
42031;DHT22;27709;52.036;5.906;2023-07-31T10:43:03;20.00;99.90
42031;DHT22;27709;52.036;5.906;2023-07-31T10:48:01;20.00;99.90
42031;DHT22;27709;52.036;5.906;2023-07-31T10:50:27;20.00;99.90
42031;DHT22;27709;52.036;5.906;2023-07-31T10:52:55;20.10;99.90
42031;DHT22;27709;52.036;5.906;2023-07-31T10:55:40;20.10;99.90
42031;DHT22;27709;52.036;5.906;2023-07-31T10:58:11;20.20;99.90
42031;DHT22;27709;52.036;5.906;2023-07-31T11:00:41;20.30;99.90
42031;DHT22;27709;52.036;5.906;2023-07-31T11:11:06;20.90;99.90
42031;DHT22;27709;52.036;5.906;2023-07-31T11:13:44;20.90;99.90
42031;DHT22;27709;52.036;5.906;2023-07-31T11:16:18;20.90;99.90
42031;DHT22;27709;52.036;5.906;2023-07-31T11:18:46;20.80;99.90
42031;DHT22;27709;52.036;5.906;2023-07-31T11:21:17;20.80;99.90
42031;DHT22;27709;52.036;5.906;2023-07-31T11:23:50;20.70;99.90
42031;DHT22;27709;52.036;5.906;2023-07-31T11:26:17;20.60;99.90
42031;DHT22;27709;52.036;5.906;2023-07-31T11:28:42;20.60;99.90
42031;DHT22;27709;52.036;5.906;2023-07-31T11:31:10;20.60;99.90
42031;DHT22;27709;52.036;5.906;2023-07-31T11:33:36;20.60;99.90
42031;DHT22;27709;52.036;5.906;2023-07-31T11:36:02;20.70;99.90
42031;DHT22;27709;52.036;5.906;2023-07-31T11:38:29;20.70;99.90
42031;DHT22;27709;52.036;5.906;2023-07-31T11:40:57;20.60;99.90
42031;DHT22;27709;52.036;5.906;2023-07-31T11:43:23;20.50;99.90
42031;DHT22;27709;52.036;5.906;2023-07-31T11:45:54;20.50;99.90
42031;DHT22;27709;52.036;5.906;2023-07-31T11:48:22;20.40;99.90
42031;DHT22;27709;52.036;5.906;2023-07-31T11:50:50;20.40;99.90
42031;DHT22;27709;52.036;5.906;2023-07-31T11:53:18;20.40;99.90
42031;DHT22;27709;52.036;5.906;2023-07-31T11:55:44;20.40;99.90
42031;DHT22;27709;52.036;5.906;2023-07-31T11:58:10;20.50;99.90
42031;DHT22;27709;52.036;5.906;2023-07-31T12:00:36;20.50;99.90
42031;DHT22;27709;52.036;5.906;2023-07-31T12:03:02;20.50;99.90
42031;DHT22;27709;52.036;5.906;2023-07-31T12:05:28;20.50;99.90
42031;DHT22;27709;52.036;5.906;2023-07-31T12:07:54;20.50;99.90
42031;DHT22;27709;52.036;5.906;2023-07-31T12:10:30;20.50;99.90
42031;DHT22;27709;52.036;5.906;2023-07-31T12:15:45;20.50;99.90
42031;DHT22;27709;52.036;5.906;2023-07-31T12:18:13;20.50;99.90
42031;DHT22;27709;52.036;5.906;2023-07-31T12:20:47;20.50;99.90
42031;DHT22;27709;52.036;5.906;2023-07-31T12:23:32;20.50;99.90
42031;DHT22;27709;52.036;5.906;2023-07-31T12:26:14;20.50;99.90
42031;DHT22;27709;52.036;5.906;2023-07-31T12:28:41;20.50;99.90
42031;DHT22;27709;52.036;5.906;2023-07-31T12:31:13;20.50;99.90
42031;DHT22;27709;52.036;5.906;2023-07-31T12:33:40;20.60;99.90
42031;DHT22;27709;52.036;5.906;2023-07-31T12:36:11;20.60;99.90
42031;DHT22;27709;52.036;5.906;2023-07-31T12:38:41;20.70;99.90
42031;DHT22;27709;52.036;5.906;2023-07-31T12:41:07;20.60;99.90
42031;DHT22;27709;52.036;5.906;2023-07-31T12:43:37;20.60;99.90
42031;DHT22;27709;52.036;5.906;2023-07-31T12:46:03;20.70;99.90
42031;DHT22;27709;52.036;5.906;2023-07-31T12:48:29;20.60;99.90
42031;DHT22;27709;52.036;5.906;2023-07-31T12:50:55;20.70;99.90
42031;DHT22;27709;52.036;5.906;2023-07-31T12:53:21;20.60;99.90
42031;DHT22;27709;52.036;5.906;2023-07-31T12:55:46;20.70;99.90
42031;DHT22;27709;52.036;5.906;2023-07-31T12:58:12;20.60;99.90
42031;DHT22;27709;52.036;5.906;2023-07-31T13:00:38;20.60;99.90
42031;DHT22;27709;52.036;5.906;2023-07-31T13:03:05;20.70;99.90
42031;DHT22;27709;52.036;5.906;2023-07-31T13:05:30;20.60;99.90
42031;DHT22;27709;52.036;5.906;2023-07-31T13:07:56;20.60;99.90
42031;DHT22;27709;52.036;5.906;2023-07-31T13:10:22;20.70;99.90
42031;DHT22;27709;52.036;5.906;2023-07-31T13:12:48;20.70;99.90
42031;DHT22;27709;52.036;5.906;2023-07-31T13:15:14;20.80;99.90
42031;DHT22;27709;52.036;5.906;2023-07-31T13:17:39;20.90;99.90
42031;DHT22;27709;52.036;5.906;2023-07-31T13:20:05;20.90;99.90
42031;DHT22;27709;52.036;5.906;2023-07-31T13:22:32;21.10;99.90
42031;DHT22;27709;52.036;5.906;2023-07-31T13:24:58;21.20;99.90
42031;DHT22;27709;52.036;5.906;2023-07-31T13:27:24;21.30;99.90
42031;DHT22;27709;52.036;5.906;2023-07-31T13:29:50;21.30;99.90
42031;DHT22;27709;52.036;5.906;2023-07-31T13:32:17;21.30;99.90
42031;DHT22;27709;52.036;5.906;2023-07-31T13:34:43;21.20;99.90
42031;DHT22;27709;52.036;5.906;2023-07-31T13:37:12;21.30;99.90
42031;DHT22;27709;52.036;5.906;2023-07-31T13:39:38;21.40;99.90
42031;DHT22;27709;52.036;5.906;2023-07-31T13:42:05;21.40;99.90
42031;DHT22;27709;52.036;5.906;2023-07-31T13:44:37;21.40;99.90
42031;DHT22;27709;52.036;5.906;2023-07-31T13:47:03;21.40;99.90
42031;DHT22;27709;52.036;5.906;2023-07-31T13:49:30;21.20;99.90
42031;DHT22;27709;52.036;5.906;2023-07-31T13:51:56;21.20;99.90
42031;DHT22;27709;52.036;5.906;2023-07-31T13:54:23;21.00;99.90
42031;DHT22;27709;52.036;5.906;2023-07-31T13:56:49;20.90;99.90
42031;DHT22;27709;52.036;5.906;2023-07-31T13:59:14;20.90;99.90
42031;DHT22;27709;52.036;5.906;2023-07-31T14:01:43;20.90;99.90
42031;DHT22;27709;52.036;5.906;2023-07-31T14:04:08;20.80;99.90
42031;DHT22;27709;52.036;5.906;2023-07-31T14:06:34;20.90;99.90
42031;DHT22;27709;52.036;5.906;2023-07-31T14:08:59;20.80;99.90
42031;DHT22;27709;52.036;5.906;2023-07-31T14:11:26;20.80;99.90
42031;DHT22;27709;52.036;5.906;2023-07-31T14:13:51;20.80;99.90
42031;DHT22;27709;52.036;5.906;2023-07-31T14:16:17;20.80;99.90
42031;DHT22;27709;52.036;5.906;2023-07-31T14:18:43;20.80;99.90
42031;DHT22;27709;52.036;5.906;2023-07-31T14:21:11;20.70;99.90
42031;DHT22;27709;52.036;5.906;2023-07-31T14:23:36;20.60;99.90
42031;DHT22;27709;52.036;5.906;2023-07-31T14:26:02;20.60;99.90
42031;DHT22;27709;52.036;5.906;2023-07-31T14:28:27;20.50;99.90
42031;DHT22;27709;52.036;5.906;2023-07-31T14:30:53;20.50;99.90
42031;DHT22;27709;52.036;5.906;2023-07-31T14:33:18;20.50;99.90
42031;DHT22;27709;52.036;5.906;2023-07-31T14:35:44;20.50;99.90
42031;DHT22;27709;52.036;5.906;2023-07-31T14:38:10;20.40;99.90
42031;DHT22;27709;52.036;5.906;2023-07-31T14:40:35;20.40;99.90
42031;DHT22;27709;52.036;5.906;2023-07-31T14:43:01;20.50;99.90
42031;DHT22;27709;52.036;5.906;2023-07-31T14:45:27;20.50;99.90
42031;DHT22;27709;52.036;5.906;2023-07-31T14:47:53;20.50;99.90
42031;DHT22;27709;52.036;5.906;2023-07-31T14:50:20;20.40;99.90
42031;DHT22;27709;52.036;5.906;2023-07-31T14:52:45;20.40;99.90
42031;DHT22;27709;52.036;5.906;2023-07-31T14:55:11;20.40;99.90
42031;DHT22;27709;52.036;5.906;2023-07-31T14:57:36;20.40;99.90
42031;DHT22;27709;52.036;5.906;2023-07-31T15:00:02;20.40;99.90
42031;DHT22;27709;52.036;5.906;2023-07-31T15:02:36;20.30;99.90
42031;DHT22;27709;52.036;5.906;2023-07-31T15:05:02;20.30;99.90
42031;DHT22;27709;52.036;5.906;2023-07-31T15:07:27;20.30;99.90
42031;DHT22;27709;52.036;5.906;2023-07-31T15:09:53;20.20;99.90
42031;DHT22;27709;52.036;5.906;2023-07-31T15:12:18;20.20;99.90
42031;DHT22;27709;52.036;5.906;2023-07-31T15:14:44;20.20;99.90
42031;DHT22;27709;52.036;5.906;2023-07-31T15:17:09;20.20;99.90
42031;DHT22;27709;52.036;5.906;2023-07-31T15:19:35;20.20;99.90
42031;DHT22;27709;52.036;5.906;2023-07-31T15:22:06;20.20;99.90
42031;DHT22;27709;52.036;5.906;2023-07-31T15:24:31;20.20;99.90
42031;DHT22;27709;52.036;5.906;2023-07-31T15:26:57;20.30;99.90
42031;DHT22;27709;52.036;5.906;2023-07-31T15:29:22;20.30;99.90
42031;DHT22;27709;52.036;5.906;2023-07-31T15:31:48;20.20;99.90
42031;DHT22;27709;52.036;5.906;2023-07-31T15:34:14;20.20;99.90
42031;DHT22;27709;52.036;5.906;2023-07-31T15:36:40;20.20;99.90
42031;DHT22;27709;52.036;5.906;2023-07-31T15:39:06;20.10;99.90
42031;DHT22;27709;52.036;5.906;2023-07-31T15:41:37;20.10;99.90
42031;DHT22;27709;52.036;5.906;2023-07-31T15:44:03;20.10;99.90
42031;DHT22;27709;52.036;5.906;2023-07-31T15:46:28;20.00;99.90
42031;DHT22;27709;52.036;5.906;2023-07-31T15:48:54;20.00;99.90
42031;DHT22;27709;52.036;5.906;2023-07-31T15:51:19;20.00;99.90